Time;durP1;ratioP1;P1;durP2;ratioP2;P2;SDS_P1;SDS_P2;PMS_P1;PMS_P2;Temp;Humidity;BMP_temperature;BMP_pressure;BME280_temperature;BME280_humidity;BME280_pressure;Samples;Min_cycle;Max_cycle;Signal;HPM_P1;HPM_P2
2023/10/21 00:00:08;;;;;;;92.50;74.20;;;;;;;19.98;nan;98960.88;5107784;28;20142;-67
2023/10/21 00:02:40;;;;;;;98.60;75.57;;;;;;;19.85;nan;98955.84;5106927;28;20055;-67
2023/10/21 00:05:09;;;;;;;97.88;74.75;;;;;;;19.69;nan;98952.94;5108153;28;20505;-67
2023/10/21 00:07:38;;;;;;;93.95;73.20;;;;;;;19.64;nan;98958.25;5108941;28;20363;-67
2023/10/21 00:10:08;;;;;;;93.15;75.15;;;;;;;19.95;nan;98962.22;5108145;28;20524;-67
2023/10/21 00:12:38;;;;;;;94.30;73.72;;;;;;;19.99;nan;98957.97;5089590;28;20039;-68
2023/10/21 00:15:08;;;;;;;95.03;73.28;;;;;;;19.96;nan;98963.81;5107799;28;20050;-67
2023/10/21 00:17:37;;;;;;;94.03;73.53;;;;;;;20.01;nan;98960.38;5107482;28;20764;-67
2023/10/21 00:20:08;;;;;;;88.30;71.28;;;;;;;20.11;nan;98950.59;5090782;28;20051;-67
2023/10/21 00:22:38;;;;;;;92.15;73.35;;;;;;;20.11;nan;98961.34;5106524;28;20050;-66
2023/10/21 00:25:07;;;;;;;91.03;71.28;;;;;;;20.12;nan;98949.56;5105391;28;20158;-66
2023/10/21 00:27:37;;;;;;;86.38;69.53;;;;;;;19.97;nan;98948.50;5098427;28;20043;-68
2023/10/21 00:30:06;;;;;;;83.95;68.25;;;;;;;19.84;nan;98940.78;5087393;28;20122;-67
2023/10/21 00:32:36;;;;;;;87.85;71.50;;;;;;;19.84;nan;98943.47;5088112;28;20047;-67
2023/10/21 00:35:05;;;;;;;95.18;71.97;;;;;;;19.94;nan;98944.44;5107218;28;20055;-67
2023/10/21 00:37:35;;;;;;;94.60;71.15;;;;;;;19.95;nan;98948.78;5113701;27;20130;-66
2023/10/21 00:40:06;;;;;;;99.53;74.90;;;;;;;19.90;nan;98945.19;5087472;28;20059;-66
2023/10/21 00:42:36;;;;;;;103.78;76.55;;;;;;;19.89;nan;98947.06;5088838;28;20040;-67
2023/10/21 00:45:05;;;;;;;93.05;73.60;;;;;;;19.78;nan;98941.78;5104511;28;20511;-67
2023/10/21 00:47:35;;;;;;;97.65;74.88;;;;;;;19.84;nan;98940.78;5107576;28;20052;-67
2023/10/21 00:50:05;;;;;;;89.35;73.10;;;;;;;19.90;nan;98942.50;5106240;28;20799;-66
2023/10/21 00:52:45;;;;;;;93.60;76.15;;;;;;;19.94;nan;98952.50;5107011;28;20772;-67
2023/10/21 00:55:15;;;;;;;97.07;72.55;;;;;;;19.98;nan;98953.63;5106033;28;20437;-67
2023/10/21 00:57:45;;;;;;;94.82;70.78;;;;;;;19.94;nan;98960.56;5106414;28;20059;-67
2023/10/21 01:00:16;;;;;;;90.25;72.15;;;;;;;19.65;nan;98956.34;5106349;28;20047;-66
2023/10/21 01:02:47;;;;;;;85.75;72.07;;;;;;;19.44;nan;98967.81;5089831;28;20124;-66
2023/10/21 01:05:16;;;;;;;97.97;73.30;;;;;;;19.28;nan;98974.78;5104055;27;20044;-66
2023/10/21 01:07:45;;;;;;;93.50;74.15;;;;;;;19.17;nan;98983.69;5106464;27;20087;-66
2023/10/21 01:10:15;;;;;;;99.32;73.90;;;;;;;19.01;nan;98987.16;5106982;27;20198;-66
2023/10/21 01:12:44;;;;;;;91.07;73.35;;;;;;;19.42;nan;98989.53;5106966;28;20727;-66
2023/10/21 01:15:13;;;;;;;96.13;75.93;;;;;;;19.32;nan;98994.72;5105662;27;20108;-67
2023/10/21 01:17:51;;;;;;;95.53;74.15;;;;;;;19.54;nan;98998.38;5107013;27;20422;-66
2023/10/21 01:20:21;;;;;;;96.65;74.28;;;;;;;19.59;nan;99003.03;5106591;27;20077;-66
2023/10/21 01:22:50;;;;;;;95.07;74.68;;;;;;;19.74;nan;99006.75;5106809;27;20130;-67
2023/10/21 01:25:19;;;;;;;95.50;73.30;;;;;;;19.86;nan;99011.25;5106458;28;20055;-66
2023/10/21 01:27:55;;;;;;;95.50;73.40;;;;;;;19.84;nan;99010.66;5105891;28;20058;-67
2023/10/21 01:30:25;;;;;;;95.90;74.90;;;;;;;19.64;nan;99022.72;5105913;27;20055;-66
2023/10/21 01:32:54;;;;;;;92.60;73.93;;;;;;;19.45;nan;99029.38;5104571;28;20123;-66
2023/10/21 01:35:24;;;;;;;94.65;74.47;;;;;;;19.28;nan;99032.00;5106569;27;20043;-66
2023/10/21 01:37:53;;;;;;;94.30;72.78;;;;;;;19.16;nan;99043.84;5105539;27;20048;-66
2023/10/21 01:40:22;;;;;;;91.93;70.70;;;;;;;19.12;nan;99040.81;5104673;28;20398;-67
2023/10/21 01:42:52;;;;;;;92.55;72.25;;;;;;;19.49;nan;99043.94;5099983;28;20054;-66
2023/10/21 01:45:21;;;;;;;93.75;76.13;;;;;;;19.42;nan;99042.44;5104142;27;20058;-67
2023/10/21 01:47:50;;;;;;;94.32;73.78;;;;;;;19.28;nan;99048.13;5105014;28;20120;-66
2023/10/21 01:50:20;;;;;;;95.38;74.55;;;;;;;19.28;nan;99052.66;5104590;27;20463;-66
2023/10/21 01:52:50;;;;;;;88.85;73.88;;;;;;;19.54;nan;99057.47;5100584;28;20047;-66
2023/10/21 01:55:19;;;;;;;94.57;74.13;;;;;;;19.77;nan;99063.78;5102643;27;20151;-66
2023/10/21 01:57:49;;;;;;;94.43;72.32;;;;;;;20.04;nan;99062.09;5104858;27;20132;-66
2023/10/21 02:00:19;;;;;;;94.53;74.07;;;;;;;19.89;nan;99059.97;5102943;27;20048;-66
2023/10/21 02:02:54;;;;;;;91.63;74.63;;;;;;;19.99;nan;99065.50;5113881;27;20046;-67
2023/10/21 02:05:24;;;;;;;97.22;75.93;;;;;;;20.32;nan;99072.75;5099193;27;20049;-67
2023/10/21 02:07:53;;;;;;;99.72;75.45;;;;;;;20.31;nan;99081.09;5123796;27;20051;-67
2023/10/21 02:10:22;;;;;;;88.38;72.40;;;;;;;20.31;nan;99079.22;5112379;27;20047;-67
2023/10/21 02:12:52;;;;;;;102.95;74.28;;;;;;;20.23;nan;99087.66;5125240;27;20043;-67
2023/10/21 02:15:22;;;;;;;90.38;72.25;;;;;;;20.41;nan;99082.06;5105724;27;20047;-67
2023/10/21 02:17:51;;;;;;;91.97;74.68;;;;;;;20.59;nan;99099.81;5123318;27;20467;-67
2023/10/21 02:20:20;;;;;;;99.15;74.72;;;;;;;20.71;nan;99105.91;5125329;27;20053;-67
2023/10/21 02:22:49;;;;;;;100.25;77.53;;;;;;;20.55;nan;99107.56;5094833;28;20086;-66
2023/10/21 02:25:19;;;;;;;108.25;79.05;;;;;;;20.56;nan;99113.75;5124776;27;20070;-67
2023/10/21 02:27:48;;;;;;;101.88;78.10;;;;;;;20.87;nan;99117.69;5123324;27;20039;-66
2023/10/21 02:30:18;;;;;;;109.68;77.65;;;;;;;21.09;nan;99123.91;5105862;28;20485;-67
2023/10/21 02:32:48;;;;;;;96.10;77.63;;;;;;;21.15;nan;99120.25;5110580;27;20150;-67
2023/10/21 02:35:18;;;;;;;104.10;80.00;;;;;;;21.15;nan;99117.56;5123962;27;20062;-67
2023/10/21 02:37:47;;;;;;;100.32;77.60;;;;;;;21.38;nan;99121.84;5107601;28;20041;-66
2023/10/21 02:40:17;;;;;;;94.60;77.45;;;;;;;21.46;nan;99135.69;5124228;28;20489;-67
2023/10/21 02:42:46;;;;;;;99.82;79.28;;;;;;;21.54;nan;99131.75;5125831;27;20043;-66
2023/10/21 02:45:15;;;;;;;107.07;82.95;;;;;;;21.65;nan;99143.47;5106997;28;20073;-67
2023/10/21 02:47:44;;;;;;;107.60;84.78;;;;;;;21.74;nan;99150.84;5125663;27;20070;-66
2023/10/21 02:50:14;;;;;;;108.22;83.10;;;;;;;22.09;nan;99157.69;5106499;28;20050;-68
2023/10/21 02:52:43;;;;;;;116.95;86.15;;;;;;;22.46;nan;99149.63;5124348;28;20047;-66
2023/10/21 02:55:13;;;;;;;110.10;85.75;;;;;;;22.28;nan;99157.06;5123562;27;20047;-66
2023/10/21 02:57:42;;;;;;;100.90;84.28;;;;;;;22.35;nan;99154.13;5125268;27;20043;-66
2023/10/21 03:00:21;;;;;;;111.60;86.72;;;;;;;22.63;nan;99155.69;5099035;28;20055;-66
2023/10/21 03:02:51;;;;;;;110.53;88.63;;;;;;;22.51;nan;99155.91;5089735;28;20039;-66
2023/10/21 03:05:20;;;;;;;114.18;88.30;;;;;;;22.80;nan;99156.38;5120345;27;20478;-68
2023/10/21 03:07:50;;;;;;;112.07;88.65;;;;;;;23.07;nan;99167.06;5096132;28;20054;-68
2023/10/21 03:10:20;;;;;;;104.45;85.25;;;;;;;23.27;nan;99175.31;5105139;28;20071;-67
2023/10/21 03:12:49;;;;;;;108.22;84.15;;;;;;;23.36;nan;99181.03;5107689;27;20039;-66
2023/10/21 03:15:18;;;;;;;109.90;82.07;;;;;;;23.45;nan;99193.81;5110695;27;20047;-65
2023/10/21 03:17:48;;;;;;;102.50;81.50;;;;;;;23.68;nan;99196.03;5109805;27;20128;-65
2023/10/21 03:20:17;;;;;;;105.28;80.90;;;;;;;23.47;nan;99182.72;5109571;27;20046;-66
2023/10/21 03:22:47;;;;;;;106.22;82.68;;;;;;;23.15;nan;99191.72;5110322;27;20043;-66
2023/10/21 03:25:17;;;;;;;101.78;79.70;;;;;;;23.22;nan;99188.78;5110328;27;20058;-66
2023/10/21 03:27:47;;;;;;;105.95;79.88;;;;;;;23.50;nan;99188.41;5110292;27;20039;-66
2023/10/21 03:30:17;;;;;;;96.50;77.30;;;;;;;23.93;nan;99189.91;5127766;27;20050;-66
2023/10/21 03:32:47;;;;;;;100.40;78.75;;;;;;;23.91;nan;99188.53;5110088;27;20104;-66
2023/10/21 03:35:16;;;;;;;99.60;76.97;;;;;;;24.12;nan;99192.88;5110289;27;20047;-66
2023/10/21 03:37:45;;;;;;;109.45;81.50;;;;;;;23.70;nan;99201.19;5129158;27;20043;-66
2023/10/21 03:40:15;;;;;;;112.90;78.65;;;;;;;23.83;nan;99197.97;5127391;27;20046;-66
2023/10/21 03:42:46;;;;;;;107.38;74.88;;;;;;;24.07;nan;99199.13;5128729;27;20058;-66
2023/10/21 03:45:15;;;;;;;103.18;74.32;;;;;;;24.16;nan;99207.56;5109670;27;20061;-67
2023/10/21 03:47:45;;;;;;;101.80;71.57;;;;;;;24.30;nan;99210.53;5108224;27;20050;-67
2023/10/21 03:50:14;;;;;;;103.13;72.80;;;;;;;24.51;nan;99218.44;5126852;27;20043;-66
2023/10/21 03:52:43;;;;;;;109.60;75.32;;;;;;;24.57;nan;99219.22;5110314;27;20039;-67
2023/10/21 03:55:14;;;;;;;103.47;72.88;;;;;;;24.80;nan;99221.41;5119478;27;20703;-67
2023/10/21 03:57:43;;;;;;;101.15;70.80;;;;;;;25.03;nan;99223.56;5121036;27;20039;-67
2023/10/21 04:00:13;;;;;;;102.68;69.72;;;;;;;25.30;nan;99225.94;5127027;27;20047;-67
2023/10/21 04:02:42;;;;;;;99.72;69.15;;;;;;;25.36;nan;99226.72;5118052;27;20040;-72
2023/10/21 04:05:12;;;;;;;100.15;69.35;;;;;;;25.66;nan;99225.84;5107501;28;20653;-67
2023/10/21 04:07:41;;;;;;;94.35;65.88;;;;;;;25.82;nan;99230.94;5107317;28;20047;-65
2023/10/21 04:10:11;;;;;;;112.07;74.90;;;;;;;25.89;nan;99230.66;5107020;28;20050;-66
2023/10/21 04:12:42;;;;;;;106.75;74.38;;;;;;;26.09;nan;99230.53;5108055;28;20363;-66
2023/10/21 04:15:11;;;;;;;104.57;74.78;;;;;;;26.29;nan;99232.31;5105001;28;20048;-66
2023/10/21 04:17:40;;;;;;;113.03;78.07;;;;;;;26.26;nan;99232.88;5107941;28;20040;-66
2023/10/21 04:20:10;;;;;;;103.40;73.38;;;;;;;26.54;nan;99239.47;5107154;28;20075;-66
2023/10/21 04:22:40;;;;;;;97.80;73.28;;;;;;;26.85;nan;99240.03;5101931;28;20044;-66
2023/10/21 04:25:11;;;;;;;99.60;70.07;;;;;;;26.99;nan;99241.03;5102396;28;20039;-65
2023/10/21 04:27:40;;;;;;;66.07;50.15;;;;;;;27.21;nan;99247.63;5107235;28;20044;-66
2023/10/21 04:30:10;;;;;;;60.78;42.50;;;;;;;27.26;nan;99244.03;5107118;28;20055;-66
2023/10/21 04:32:40;;;;;;;57.78;42.88;;;;;;;27.57;nan;99239.09;5106469;28;20681;-66
2023/10/21 04:35:09;;;;;;;87.22;44.72;;;;;;;27.95;nan;99237.22;5104459;28;20048;-66
2023/10/21 04:37:39;;;;;;;60.25;43.00;;;;;;;27.99;nan;99241.81;5086897;28;20147;-66
2023/10/21 04:40:08;;;;;;;57.38;42.45;;;;;;;27.89;nan;99241.13;5091521;28;20044;-66
2023/10/21 04:42:38;;;;;;;60.45;44.97;;;;;;;28.21;nan;99243.16;5097494;28;20103;-65
2023/10/21 04:45:08;;;;;;;53.22;38.35;;;;;;;27.93;nan;99242.16;5106672;28;20043;-66
2023/10/21 04:47:38;;;;;;;49.67;38.97;;;;;;;28.90;nan;99248.63;5107096;28;20051;-66
2023/10/21 04:50:08;;;;;;;48.42;39.00;;;;;;;29.01;nan;99241.06;5089008;28;20079;-66
2023/10/21 04:52:38;;;;;;;51.83;39.53;;;;;;;28.67;nan;99246.00;5105283;28;20067;-66
2023/10/21 04:55:08;;;;;;;50.42;39.20;;;;;;;29.56;nan;99260.28;5105486;28;20508;-66
2023/10/21 04:57:38;;;;;;;53.08;39.67;;;;;;;29.81;nan;99254.28;5105665;28;20039;-67
2023/10/21 05:00:08;;;;;;;57.72;43.83;;;;;;;29.00;nan;99247.63;5106845;28;20055;-67
2023/10/21 05:02:38;;;;;;;61.42;46.83;;;;;;;29.75;nan;99253.59;5104985;28;20068;-67
2023/10/21 05:05:07;;;;;;;48.97;38.17;;;;;;;29.63;nan;99252.47;5102935;28;20723;-67
2023/10/21 05:07:36;;;;;;;50.33;37.33;;;;;;;29.09;nan;99247.75;5103647;28;20054;-67
2023/10/21 05:10:06;;;;;;;46.72;35.45;;;;;;;29.17;nan;99252.50;5103979;28;20039;-67
2023/10/21 05:12:36;;;;;;;46.47;36.50;;;;;;;28.98;nan;99253.41;5103739;28;20131;-67
2023/10/21 05:15:05;;;;;;;52.00;37.00;;;;;;;28.76;nan;99247.78;5104188;28;20051;-67
2023/10/21 05:17:35;;;;;;;43.85;36.72;;;;;;;28.96;nan;99252.88;5105688;28;20047;-67
2023/10/21 05:20:05;;;;;;;53.40;39.40;;;;;;;28.77;nan;99246.66;5104913;28;20132;-67
2023/10/21 05:22:34;;;;;;;47.92;37.70;;;;;;;28.89;nan;99246.22;5105143;28;20131;-67
2023/10/21 05:25:04;;;;;;;49.30;38.78;;;;;;;29.31;nan;99239.72;5105046;28;20788;-67
2023/10/21 05:27:34;;;;;;;51.22;39.75;;;;;;;29.65;nan;99250.28;5108472;27;20054;-68
2023/10/21 05:30:05;;;;;;;52.83;42.97;;;;;;;29.87;nan;99248.44;5104071;28;20140;-66
2023/10/21 05:32:34;;;;;;;52.20;41.35;;;;;;;28.79;nan;99240.91;5101636;27;20864;-66
2023/10/21 05:35:07;;;;;;;61.90;41.38;;;;;;;28.57;nan;99242.34;5102233;28;20724;-67
2023/10/21 05:37:36;;;;;;;51.28;39.75;;;;;;;29.38;nan;99245.63;5102466;28;20136;-65
2023/10/21 05:40:06;;;;;;;55.50;42.90;;;;;;;28.68;nan;99244.91;5101947;28;20048;-68
2023/10/21 05:42:35;;;;;;;59.20;45.80;;;;;;;29.10;nan;99235.72;5081120;27;20051;-69
2023/10/21 05:45:05;;;;;;;58.83;47.22;;;;;;;29.54;nan;99229.72;5103171;28;20055;-68
2023/10/21 05:47:37;;;;;;;62.55;48.33;;;;;;;28.41;nan;99227.31;5099362;28;20605;-69
2023/10/21 05:50:07;;;;;;;64.43;48.05;;;;;;;28.65;nan;99229.13;5100817;27;20134;-65
2023/10/21 05:52:36;;;;;;;64.30;49.22;;;;;;;28.99;nan;99229.66;5101057;28;20071;-65
2023/10/21 05:55:06;;;;;;;58.97;46.28;;;;;;;28.81;nan;99230.53;5106015;27;20427;-66
2023/10/21 05:57:35;;;;;;;56.75;41.20;;;;;;;29.00;nan;99228.53;5104721;28;20067;-68
2023/10/21 06:00:08;;;;;;;48.90;38.25;;;;;;;29.04;nan;99226.81;5102103;28;20036;-68
2023/10/21 06:02:37;;;;;;;;;;;;;;;28.55;nan;99228.19;5101937;28;20043;-69
2023/10/21 06:05:06;;;;;;;51.00;36.15;;;;;;;28.68;nan;99225.81;5083275;28;20132;-67
2023/10/21 06:07:36;;;;;;;45.20;35.30;;;;;;;28.43;nan;99227.84;5100904;28;20039;-68
2023/10/21 06:10:06;;;;;;;43.17;33.05;;;;;;;28.25;nan;99223.22;5096683;27;20149;-68
2023/10/21 06:12:36;;;;;;;37.17;29.30;;;;;;;28.45;nan;99230.28;5103950;27;20058;-66
2023/10/21 06:15:06;;;;;;;38.42;31.23;;;;;;;28.31;nan;99223.94;5104312;28;20047;-68
2023/10/21 06:17:38;;;;;;;;;;;;;;;28.36;nan;99224.69;5102546;27;20039;-68
2023/10/21 06:20:08;;;;;;;39.53;29.83;;;;;;;28.75;nan;99226.25;5091216;28;19927;-68
2023/10/21 06:22:38;;;;;;;30.20;25.00;;;;;;;28.80;nan;99229.72;5097660;27;20039;-69
2023/10/21 06:25:08;;;;;;;29.55;22.60;;;;;;;28.38;nan;99225.19;5110506;27;20561;-69
2023/10/21 06:27:37;;;;;;;34.97;22.38;;;;;;;28.43;nan;99216.13;5112103;28;20522;-72
2023/10/21 06:30:07;;;;;;;30.33;22.38;;;;;;;28.67;nan;99216.00;5097897;28;20442;-70
2023/10/21 06:32:37;;;;;;;34.33;24.83;;;;;;;28.65;nan;99215.50;5105458;28;20050;-71
2023/10/21 06:35:07;;;;;;;42.30;27.10;;;;;;;28.85;nan;99218.72;5099811;28;20046;-68
2023/10/21 06:37:36;;;;;;;35.17;25.67;;;;;;;28.83;nan;99214.66;5100575;28;20040;-67
2023/10/21 06:40:06;;;;;;;35.10;23.90;;;;;;;28.69;nan;99211.06;5083258;28;20054;-67
2023/10/21 06:42:36;;;;;;;35.33;25.70;;;;;;;28.46;nan;99212.78;5067960;28;20058;-67
2023/10/21 06:45:05;;;;;;;29.83;21.00;;;;;;;28.65;nan;99210.84;5086621;28;20433;-66
2023/10/21 06:47:41;;;;;;;32.56;20.00;;;;;;;28.62;nan;99202.47;4953294;27;10000893;-67
2023/10/21 06:50:12;;;;;;;30.08;21.65;;;;;;;28.35;nan;99187.63;5100591;27;20251;-66
2023/10/21 06:52:41;;;;;;;26.10;20.85;;;;;;;28.34;nan;99196.09;5108678;28;20743;-68
2023/10/21 06:55:11;;;;;;;30.70;19.48;;;;;;;28.50;nan;99194.75;5073409;27;20066;-69
2023/10/21 06:57:40;;;;;;;20.70;16.85;;;;;;;28.46;nan;99185.53;5108777;27;20044;-68
2023/10/21 07:00:10;;;;;;;23.08;18.73;;;;;;;28.25;nan;99176.06;5103875;27;20055;-67
2023/10/21 07:02:40;;;;;;;25.10;17.67;;;;;;;28.51;nan;99172.66;5097989;27;20057;-68
2023/10/21 07:05:10;;;;;;;23.95;15.80;;;;;;;28.45;nan;99175.78;5124334;27;20126;-67
2023/10/21 07:07:41;;;;;;;18.63;14.65;;;;;;;28.46;nan;99169.19;5133126;27;20078;-67
2023/10/21 07:10:14;;;;;;;22.17;15.53;;;;;;;28.55;nan;99165.50;5134103;27;20055;-68
2023/10/21 07:12:47;;;;;;;23.48;16.33;;;;;;;28.69;nan;99157.34;5126886;27;20043;-72
2023/10/21 07:15:19;;;;;;;23.40;15.80;;;;;;;28.18;nan;99157.41;5107263;27;20046;-70
2023/10/21 07:17:50;;;;;;;22.20;16.98;;;;;;;28.51;nan;99152.75;5129602;27;20047;-70
2023/10/21 07:20:22;;;;;;;24.70;19.92;;;;;;;28.45;nan;99141.16;5131980;27;20051;-73
2023/10/21 07:22:53;;;;;;;27.10;19.25;;;;;;;28.12;nan;99134.88;5110529;27;20125;-71
2023/10/21 07:25:24;;;;;;;25.40;17.65;;;;;;;28.08;nan;99141.19;5128167;27;20043;-72
2023/10/21 07:27:59;;;;;;;27.25;16.70;;;;;;;27.96;nan;99138.91;5109988;27;20054;-70
2023/10/21 07:30:39;;;;;;;25.00;15.40;;;;;;;28.28;nan;99138.16;5125004;27;20040;-67
2023/10/21 07:33:13;;;;;;;18.48;13.30;;;;;;;28.18;nan;99132.88;5120314;27;20475;-67
2023/10/21 07:35:52;;;;;;;20.15;12.98;;;;;;;28.35;nan;99130.41;5109917;27;20457;-69
2023/10/21 07:38:22;;;;;;;23.45;15.18;;;;;;;28.45;nan;99121.25;5133095;27;20137;-67
2023/10/21 07:40:52;;;;;;;22.05;13.60;;;;;;;28.49;nan;99116.84;5138063;27;20038;-69
2023/10/21 07:43:27;;;;;;;21.80;13.65;;;;;;;28.53;nan;99110.47;5134683;27;20053;-68
2023/10/21 07:46:03;;;;;;;20.00;12.53;;;;;;;28.42;nan;99102.75;5135758;27;20039;-70
2023/10/21 07:48:49;;;;;;;14.30;11.48;;;;;;;28.32;nan;99098.31;5126940;27;20773;-68
2023/10/21 07:51:20;;;;;;;18.20;11.20;;;;;;;28.27;nan;99097.59;5132527;27;20057;-69
2023/10/21 07:53:54;;;;;;;14.13;10.13;;;;;;;28.25;nan;99095.16;5122693;27;20039;-68
2023/10/21 07:56:23;;;;;;;16.70;9.82;;;;;;;28.31;nan;99088.53;5126272;27;20126;-68
2023/10/21 07:58:54;;;;;;;14.88;9.68;;;;;;;28.30;nan;99089.63;5104925;27;20039;-67
2023/10/21 08:01:30;;;;;;;13.32;9.80;;;;;;;28.41;nan;99084.81;5123137;27;20039;-67
2023/10/21 08:04:01;;;;;;;15.13;8.90;;;;;;;28.23;nan;99081.03;5102499;27;20079;-68
2023/10/21 08:06:34;;;;;;;16.67;9.40;;;;;;;28.13;nan;99073.03;5069661;28;20701;-68
2023/10/21 08:09:14;;;;;;;13.15;9.18;;;;;;;27.96;nan;99067.31;5102580;27;20044;-66
2023/10/21 08:11:46;;;;;;;14.30;8.68;;;;;;;27.84;nan;99069.69;5103906;28;20047;-66
2023/10/21 08:14:20;;;;;;;12.75;8.00;;;;;;;27.91;nan;99072.81;5105643;28;20099;-67
2023/10/21 08:16:50;;;;;;;12.90;7.88;;;;;;;27.98;nan;99074.06;5106138;28;20505;-67
2023/10/21 08:19:24;;;;;;;11.20;7.78;;;;;;;28.15;nan;99068.09;5104401;27;20442;-67
2023/10/21 08:21:55;;;;;;;13.15;7.07;;;;;;;28.18;nan;99063.97;5101372;28;20364;-67
2023/10/21 08:24:26;;;;;;;18.95;8.82;;;;;;;27.86;nan;99057.38;5067826;28;20051;-65
2023/10/21 08:26:59;;;;;;;18.15;8.57;;;;;;;27.77;nan;99058.34;5084265;28;20166;-65
2023/10/21 08:29:39;;;;;;;15.73;8.57;;;;;;;27.59;nan;99054.53;5088395;28;20048;-66
2023/10/21 08:32:09;;;;;;;21.55;8.23;;;;;;;27.59;nan;99047.19;5104660;28;20051;-67
2023/10/21 08:34:38;;;;;;;19.25;8.75;;;;;;;27.62;nan;99043.84;5106679;28;20048;-66
2023/10/21 08:37:09;;;;;;;14.88;9.18;;;;;;;27.39;nan;99042.00;5105333;27;20054;-67
2023/10/21 08:39:48;;;;;;;13.02;8.38;;;;;;;27.45;nan;99040.00;5115649;27;20095;-66
2023/10/21 08:42:24;;;;;;;15.15;9.27;;;;;;;27.52;nan;99035.88;5100477;27;20489;-66
2023/10/21 08:45:06;;;;;;;17.83;9.27;;;;;;;27.54;nan;99032.84;5102689;27;20047;-66
2023/10/21 08:47:38;;;;;;;13.63;9.68;;;;;;;27.41;nan;99031.63;5102625;28;20062;-66
2023/10/21 08:50:10;;;;;;;13.20;9.38;;;;;;;27.45;nan;99029.94;5097891;28;20043;-65
2023/10/21 08:52:45;;;;;;;15.65;9.65;;;;;;;27.54;nan;99027.38;5101548;27;20093;-66
2023/10/21 08:55:15;;;;;;;21.03;10.20;;;;;;;27.32;nan;99024.41;5105732;28;20050;-66
2023/10/21 08:57:48;;;;;;;16.63;10.45;;;;;;;27.33;nan;99037.75;5089391;28;20288;-65
2023/10/21 09:00:18;;;;;;;18.20;9.53;;;;;;;27.29;nan;99019.56;4392180;28;10000832;-67
2023/10/21 09:02:49;;;;;;;15.35;10.13;;;;;;;27.58;nan;99020.25;5102788;28;20614;-68
2023/10/21 09:05:20;;;;;;;13.88;8.88;;;;;;;27.64;nan;99019.06;5103130;28;20058;-65
2023/10/21 09:07:54;;;;;;;12.35;9.02;;;;;;;27.64;nan;99022.59;5105809;28;20040;-65
2023/10/21 09:10:24;;;;;;;14.75;8.57;;;;;;;27.73;nan;99024.66;4746913;28;9999934;-66
2023/10/21 09:12:54;;;;;;;11.68;9.30;;;;;;;27.57;nan;99016.72;5102927;28;20527;-67
2023/10/21 09:15:38;;;;;;;16.33;8.90;;;;;;;27.66;nan;99014.94;5099067;27;20043;-68
2023/10/21 09:18:11;;;;;;;12.07;8.98;;;;;;;27.72;nan;99010.22;5104527;27;20043;-70
2023/10/21 09:20:49;;;;;;;12.45;9.07;;;;;;;27.73;nan;99011.84;5062851;28;20047;-68
2023/10/21 09:23:22;;;;;;;18.33;10.75;;;;;;;27.74;nan;99004.50;5099312;28;20138;-68
2023/10/21 09:25:54;;;;;;;15.52;10.23;;;;;;;27.75;nan;99001.47;5085767;27;20052;-68
2023/10/21 09:28:25;;;;;;;17.10;11.48;;;;;;;27.66;nan;99001.34;5067648;27;20095;-68
2023/10/21 09:31:02;;;;;;;28.27;13.88;;;;;;;27.42;nan;99002.50;5100750;28;20062;-68
2023/10/21 09:33:57;;;;;;;17.02;12.40;;;;;;;27.47;nan;98995.09;5103942;27;20043;-68
2023/10/21 09:36:40;;;;;;;19.17;12.43;;;;;;;27.49;nan;98992.91;5111351;27;20050;-68
2023/10/21 09:39:10;;;;;;;16.13;11.40;;;;;;;27.62;nan;98999.50;5103343;27;20051;-67
2023/10/21 09:41:43;;;;;;;15.80;10.60;;;;;;;27.65;nan;98986.13;5101009;27;20105;-67
2023/10/21 09:44:17;;;;;;;18.30;11.70;;;;;;;27.66;nan;98978.78;5097911;27;20046;-67
2023/10/21 09:46:50;;;;;;;14.90;10.60;;;;;;;27.65;nan;98983.41;5109972;27;20056;-68
2023/10/21 09:49:28;;;;;;;16.73;10.25;;;;;;;27.65;nan;98983.41;5093433;28;20050;-67
2023/10/21 09:52:06;;;;;;;15.45;11.00;;;;;;;27.65;nan;98975.25;5084166;28;20090;-68
2023/10/21 09:54:44;;;;;;;12.32;11.00;;;;;;;27.44;nan;98976.63;5102469;28;20051;-70
2023/10/21 09:57:18;;;;;;;17.75;11.70;;;;;;;27.45;nan;98974.72;5101894;27;20139;-70
2023/10/21 09:59:50;;;;;;;16.42;10.60;;;;;;;27.52;nan;98973.28;5097156;28;20047;-68
2023/10/21 10:02:21;;;;;;;17.23;11.13;;;;;;;27.52;nan;98969.75;5098233;28;20058;-69
2023/10/21 10:04:54;;;;;;;16.05;10.23;;;;;;;27.45;nan;98971.97;5081998;28;20043;-68
2023/10/21 10:07:30;;;;;;;15.63;10.52;;;;;;;27.52;nan;98965.13;5100777;28;20616;-68
2023/10/21 10:10:12;;;;;;;16.75;11.55;;;;;;;27.51;nan;98963.50;5107585;27;20048;-69
2023/10/21 10:13:09;;;;;;;16.60;10.20;;;;;;;27.47;nan;98965.16;5099691;27;20035;-68
2023/10/21 10:15:44;;;;;;;15.32;10.43;;;;;;;27.51;nan;98958.06;5096014;27;20097;-69
2023/10/21 10:18:21;;;;;;;17.40;10.73;;;;;;;27.45;nan;98961.91;5102889;27;20054;-69
2023/10/21 10:20:56;;;;;;;17.52;11.25;;;;;;;27.48;nan;98960.56;5081623;28;20039;-69
2023/10/21 10:23:29;;;;;;;18.77;11.20;;;;;;;27.46;nan;98965.44;5089291;28;20893;-69
2023/10/21 10:26:02;;;;;;;15.32;10.85;;;;;;;27.45;nan;98966.53;5102150;28;20050;-69
2023/10/21 10:28:32;;;;;;;16.45;10.38;;;;;;;27.49;nan;98962.16;5100165;28;20043;-69
2023/10/21 10:31:02;;;;;;;20.13;11.63;;;;;;;27.33;nan;98963.47;5090406;28;20112;-69
2023/10/21 10:33:33;;;;;;;14.82;11.48;;;;;;;27.35;nan;98953.13;5100243;28;20120;-69
2023/10/21 10:36:12;;;;;;;16.05;11.23;;;;;;;27.22;nan;98954.66;5093658;28;20044;-68
2023/10/21 10:38:45;;;;;;;17.13;10.55;;;;;;;27.26;nan;98956.47;5100925;28;20046;-69
2023/10/21 10:41:16;;;;;;;18.43;10.57;;;;;;;27.27;nan;98958.09;5098725;28;20051;-69
2023/10/21 10:43:56;;;;;;;16.85;11.50;;;;;;;27.28;nan;98953.47;5100383;28;20055;-68
2023/10/21 10:46:28;;;;;;;15.43;10.93;;;;;;;27.22;nan;98952.75;5099157;28;20054;-70
2023/10/21 10:49:03;;;;;;;16.90;11.60;;;;;;;27.19;nan;98953.34;5083053;28;20112;-69
2023/10/21 10:51:43;;;;;;;13.85;11.23;;;;;;;27.09;nan;98949.94;5101056;28;20132;-69
2023/10/21 10:54:19;;;;;;;18.02;11.38;;;;;;;27.03;nan;98954.69;5099394;28;20205;-70
2023/10/21 10:56:50;;;;;;;18.00;11.60;;;;;;;27.02;nan;98946.81;5102656;28;20040;-68
2023/10/21 10:59:30;;;;;;;13.95;11.35;;;;;;;26.96;nan;98946.06;5097624;28;20050;-70
2023/10/21 11:02:08;;;;;;;17.90;11.25;;;;;;;26.87;nan;98938.84;5099610;28;20044;-70
2023/10/21 11:04:41;;;;;;;16.33;11.00;;;;;;;26.85;nan;98943.75;5099405;28;20063;-71
2023/10/21 11:07:11;;;;;;;22.77;12.15;;;;;;;26.77;nan;98937.88;5082853;28;20135;-66
2023/10/21 11:09:41;;;;;;;15.98;11.27;;;;;;;26.62;nan;98931.81;5103083;28;20055;-65
2023/10/21 11:12:14;;;;;;;14.30;12.00;;;;;;;26.59;nan;98929.69;4746453;28;9999723;-67
2023/10/21 11:14:46;;;;;;;16.45;12.23;;;;;;;26.50;nan;98928.72;5102588;28;20042;-69
2023/10/21 11:17:17;;;;;;;14.85;11.80;;;;;;;26.50;nan;98926.81;5086972;28;20106;-69
2023/10/21 11:19:49;;;;;;;17.40;12.53;;;;;;;26.44;nan;98919.81;5112959;28;20051;-70
2023/10/21 11:22:26;;;;;;;18.02;12.35;;;;;;;26.35;nan;98919.66;5100372;28;20155;-70
2023/10/21 11:24:56;;;;;;;24.55;12.75;;;;;;;26.30;nan;98927.03;5087537;28;20047;-72
2023/10/21 11:27:40;;;;;;;21.75;12.88;;;;;;;26.23;nan;98929.31;5090587;28;20058;-69
2023/10/21 11:30:12;;;;;;;17.10;12.75;;;;;;;26.20;nan;98927.16;5099691;28;20078;-69
2023/10/21 11:32:42;;;;;;;19.35;14.43;;;;;;;26.11;nan;98928.88;5099774;28;20059;-69
2023/10/21 11:35:16;;;;;;;18.88;13.13;;;;;;;26.06;nan;98924.31;5103666;28;20048;-70
2023/10/21 11:37:47;;;;;;;20.10;14.18;;;;;;;26.05;nan;98924.59;5104634;28;20047;-69
2023/10/21 11:40:18;;;;;;;20.33;13.18;;;;;;;25.93;nan;98917.63;5102441;27;20047;-68
2023/10/21 11:43:01;;;;;;;17.48;13.55;;;;;;;25.87;nan;98910.66;5103452;28;20044;-69
2023/10/21 11:45:31;;;;;;;19.05;14.10;;;;;;;25.80;nan;98918.31;5087651;28;20058;-69
2023/10/21 11:48:10;;;;;;;23.98;14.00;;;;;;;25.74;nan;98919.47;5101669;28;20172;-66
2023/10/21 11:50:45;;;;;;;21.35;13.85;;;;;;;25.67;nan;98924.41;5104661;28;20142;-67
2023/10/21 11:53:19;;;;;;;27.42;14.70;;;;;;;25.68;nan;98917.88;5102576;27;20169;-65